Time;durP1;ratioP1;P1;durP2;ratioP2;P2;SDS_P1;SDS_P2;PMS_P1;PMS_P2;Temp;Humidity;BMP_temperature;BMP_pressure;BME280_temperature;BME280_humidity;BME280_pressure;Samples;Min_cycle;Max_cycle;Signal;HPM_P1;HPM_P2
2022/05/23 00:02:16;;;;;;;2.00;0.95;;;18.60;66.00;;;;;;5038830;28;20060;-59
2022/05/23 00:04:42;;;;;;;3.40;1.40;;;18.60;66.10;;;;;;5033863;28;20021;-58
2022/05/23 00:07:35;;;;;;;2.67;0.95;;;18.60;66.30;;;;;;5043980;28;20056;-58
2022/05/23 00:10:02;;;;;;;2.53;1.08;;;18.60;66.40;;;;;;5052154;28;20072;-59
2022/05/23 00:12:28;;;;;;;2.58;1.25;;;18.50;66.70;;;;;;5053603;28;20021;-59
2022/05/23 00:14:53;;;;;;;2.38;1.10;;;18.50;67.00;;;;;;5053416;28;20385;-59
2022/05/23 00:17:20;;;;;;;2.10;1.50;;;18.40;67.20;;;;;;5053562;28;20032;-59
2022/05/23 00:19:46;;;;;;;3.05;1.20;;;18.40;67.50;;;;;;5053233;28;20029;-58
2022/05/23 00:22:14;;;;;;;3.30;1.35;;;18.40;67.70;;;;;;5053345;28;20033;-59
2022/05/23 00:24:41;;;;;;;3.10;1.30;;;18.40;68.00;;;;;;5053200;28;20074;-58
2022/05/23 00:27:09;;;;;;;3.63;1.50;;;18.30;68.00;;;;;;5053298;28;20032;-58
2022/05/23 00:29:34;;;;;;;4.75;1.50;;;18.30;68.30;;;;;;5051806;28;20032;-58
2022/05/23 00:37:28;;;;;;;4.30;1.23;;;18.20;68.40;;;;;;5048989;28;20384;-58
2022/05/23 00:39:54;;;;;;;3.10;1.23;;;18.10;68.40;;;;;;5051497;28;20549;-59
2022/05/23 00:45:13;;;;;;;4.38;1.80;;;18.00;68.40;;;;;;5053252;28;20126;-58
2022/05/23 00:47:39;;;;;;;7.55;1.52;;;18.00;68.30;;;;;;5053198;28;20025;-59
2022/05/23 00:50:05;;;;;;;2.63;1.05;;;17.90;68.30;;;;;;5052830;28;20106;-58
2022/05/23 00:52:35;;;;;;;2.35;1.10;;;17.90;68.30;;;;;;5051268;28;20131;-58
2022/05/23 00:55:08;;;;;;;3.97;1.10;;;17.80;68.40;;;;;;5052620;28;20039;-58
2022/05/23 00:57:37;;;;;;;2.60;1.00;;;17.80;68.40;;;;;;5052912;28;20439;-58
2022/05/23 01:00:06;;;;;;;3.65;1.23;;;17.80;68.50;;;;;;5052835;28;20112;-58
2022/05/23 01:02:32;;;;;;;4.68;1.38;;;17.70;68.40;;;;;;5052671;28;20083;-58
2022/05/23 01:04:57;;;;;;;4.07;1.45;;;17.70;68.50;;;;;;5052606;28;20036;-59
2022/05/23 01:07:23;;;;;;;3.47;1.50;;;17.70;68.50;;;;;;5052714;28;20068;-58
2022/05/23 01:09:50;;;;;;;5.30;1.67;;;17.60;68.50;;;;;;5052272;28;20032;-58
2022/05/23 01:12:15;;;;;;;3.95;1.52;;;17.60;68.70;;;;;;5052473;28;20032;-58
2022/05/23 01:17:48;;;;;;;2.63;0.85;;;17.60;68.60;;;;;;5052892;28;20511;-58
2022/05/23 01:20:15;;;;;;;3.60;1.17;;;17.60;68.70;;;;;;5052400;28;20096;-58
2022/05/23 01:22:59;;;;;;;4.18;1.08;;;17.60;68.70;;;;;;5052482;28;20021;-58
2022/05/23 01:25:34;;;;;;;4.45;1.25;;;17.60;68.70;;;;;;5052353;28;20395;-58
2022/05/23 01:28:01;;;;;;;2.38;1.00;;;17.60;68.80;;;;;;5052452;28;20025;-58
2022/05/23 01:30:27;;;;;;;3.38;0.73;;;17.60;69.00;;;;;;5052204;28;20025;-58
2022/05/23 01:32:52;;;;;;;3.15;1.10;;;17.60;69.00;;;;;;5052347;28;20519;-58
2022/05/23 01:35:18;;;;;;;3.67;0.88;;;17.60;68.90;;;;;;5052334;28;20450;-58
2022/05/23 01:37:43;;;;;;;2.67;0.80;;;17.60;68.90;;;;;;5051256;28;20373;-58
2022/05/23 01:40:13;;;;;;;4.28;0.88;;;17.60;69.00;;;;;;5052246;28;20036;-58
2022/05/23 01:42:38;;;;;;;4.30;0.85;;;17.60;69.10;;;;;;5052191;28;20032;-58
2022/05/23 01:45:05;;;;;;;1.98;0.50;;;17.50;69.10;;;;;;5052096;28;20033;-58
2022/05/23 01:47:31;;;;;;;2.60;0.80;;;17.60;69.10;;;;;;5052321;28;20480;-58
2022/05/23 01:49:56;;;;;;;2.38;0.65;;;17.50;69.30;;;;;;5053196;28;20035;-58
2022/05/23 01:52:22;;;;;;;3.25;0.95;;;17.50;69.40;;;;;;5056135;28;20548;-58
2022/05/23 01:54:48;;;;;;;0.88;0.63;;;17.50;69.40;;;;;;5056182;28;20021;-58
2022/05/23 01:57:14;;;;;;;2.47;0.70;;;17.50;69.50;;;;;;5056051;28;20048;-58
2022/05/23 02:02:24;;;;;;;2.70;0.70;;;17.50;69.60;;;;;;5056371;28;20159;-58
2022/05/23 02:04:52;;;;;;;2.65;0.73;;;17.40;69.60;;;;;;5054665;28;20505;-58
2022/05/23 02:07:18;;;;;;;2.88;0.70;;;17.40;69.70;;;;;;5056088;28;20025;-58
2022/05/23 02:09:45;;;;;;;3.28;0.93;;;17.40;69.80;;;;;;5055767;28;20051;-58
2022/05/23 02:12:12;;;;;;;2.30;0.63;;;17.40;70.00;;;;;;5055645;28;20063;-58
2022/05/23 02:14:39;;;;;;;2.72;0.70;;;17.30;70.20;;;;;;5055716;28;20428;-58
2022/05/23 02:17:10;;;;;;;2.38;0.73;;;17.30;70.20;;;;;;5054444;28;20021;-58
2022/05/23 02:19:36;;;;;;;1.67;0.60;;;17.30;70.30;;;;;;5054463;28;20031;-58
2022/05/23 02:22:02;;;;;;;3.00;1.00;;;17.30;70.50;;;;;;5055730;28;20550;-58
2022/05/23 02:24:27;;;;;;;2.80;0.70;;;17.20;71.20;;;;;;5055592;28;20469;-59
2022/05/23 02:26:53;;;;;;;2.38;0.60;;;17.20;70.80;;;;;;5055327;28;20029;-58
2022/05/23 02:29:18;;;;;;;2.40;0.68;;;17.10;71.00;;;;;;5055432;28;20025;-58
2022/05/23 02:31:44;;;;;;;3.60;0.80;;;17.10;71.20;;;;;;5055420;28;20086;-58
2022/05/23 02:34:13;;;;;;;2.38;0.80;;;17.10;71.20;;;;;;5055452;28;20048;-58
2022/05/23 02:36:38;;;;;;;1.52;0.75;;;17.10;71.30;;;;;;5055390;28;20032;-58
2022/05/23 02:39:05;;;;;;;3.53;0.80;;;17.00;71.40;;;;;;5055420;28;20421;-58
2022/05/23 02:41:30;;;;;;;2.40;0.85;;;17.00;71.50;;;;;;5053800;28;20389;-58
2022/05/23 02:43:56;;;;;;;1.38;0.65;;;17.00;71.60;;;;;;5055130;28;20025;-58
2022/05/23 02:46:21;;;;;;;2.20;0.90;;;17.00;71.90;;;;;;5055188;28;20036;-58
2022/05/23 02:48:47;;;;;;;2.65;0.80;;;17.00;72.20;;;;;;5055173;28;20028;-59
2022/05/23 02:51:12;;;;;;;2.85;1.02;;;16.90;72.30;;;;;;5054880;28;20389;-58
2022/05/23 02:53:38;;;;;;;4.95;1.60;;;16.90;72.60;;;;;;5055035;28;20485;-58
2022/05/23 02:56:04;;;;;;;1.42;0.75;;;16.90;72.80;;;;;;5054928;28;20064;-58
2022/05/23 02:58:29;;;;;;;2.17;1.10;;;16.90;72.90;;;;;;5054944;28;20021;-58
2022/05/23 03:00:55;;;;;;;1.40;0.90;;;16.80;73.00;;;;;;5054349;28;20043;-58
2022/05/23 03:03:20;;;;;;;3.45;1.10;;;16.80;73.10;;;;;;5054352;28;20070;-58
2022/05/23 03:05:48;;;;;;;1.58;1.08;;;16.80;73.20;;;;;;5054833;28;20079;-58
2022/05/23 03:08:16;;;;;;;2.10;1.00;;;16.80;73.40;;;;;;5053630;28;20542;-58
2022/05/23 03:10:42;;;;;;;2.20;0.70;;;16.70;73.60;;;;;;5054592;28;20492;-58
2022/05/23 03:13:09;;;;;;;2.83;0.90;;;16.70;73.90;;;;;;5054679;28;20029;-58
2022/05/23 03:15:35;;;;;;;2.53;0.90;;;16.70;74.10;;;;;;5054553;28;20067;-58
2022/05/23 03:18:01;;;;;;;3.65;1.30;;;16.60;74.30;;;;;;5054767;28;20480;-58
2022/05/23 03:20:27;;;;;;;3.03;0.85;;;16.60;74.50;;;;;;5054567;28;20059;-58
2022/05/23 03:28:20;;;;;;;2.33;1.10;;;16.60;74.60;;;;;;5054388;28;20091;-58
2022/05/23 03:30:49;;;;;;;2.70;1.13;;;16.50;74.80;;;;;;5054226;28;20032;-58
2022/05/23 03:33:15;;;;;;;2.78;1.30;;;16.50;75.00;;;;;;5054273;28;20037;-58
2022/05/23 03:35:42;;;;;;;3.22;1.20;;;16.50;75.20;;;;;;5054061;28;20064;-58
2022/05/23 03:38:08;;;;;;;2.65;1.33;;;16.50;75.30;;;;;;5054142;28;20029;-58
2022/05/23 03:40:36;;;;;;;3.78;1.45;;;16.40;75.40;;;;;;5054098;28;20032;-59
2022/05/23 03:43:01;;;;;;;4.28;2.30;;;16.40;75.60;;;;;;5054262;28;20142;-58
2022/05/23 03:45:27;;;;;;;2.08;1.38;;;16.40;75.90;;;;;;5053892;28;20483;-58
2022/05/23 03:47:54;;;;;;;3.70;1.95;;;16.30;76.20;;;;;;5054276;28;20025;-58
2022/05/23 03:50:21;;;;;;;3.25;1.52;;;16.30;76.60;;;;;;5053888;28;20086;-59
2022/05/23 03:52:48;;;;;;;2.67;1.23;;;16.30;76.80;;;;;;5053767;28;20048;-58
2022/05/23 03:55:14;;;;;;;3.60;1.52;;;16.30;77.00;;;;;;5052962;28;20070;-58
2022/05/23 03:57:39;;;;;;;3.22;1.55;;;16.30;77.10;;;;;;5053854;28;20393;-58
2022/05/23 04:00:07;;;;;;;3.70;1.63;;;16.30;77.20;;;;;;5053787;28;20031;-58
2022/05/23 04:02:33;;;;;;;3.22;1.30;;;16.30;77.30;;;;;;5053593;28;20029;-58
2022/05/23 04:04:59;;;;;;;4.05;1.63;;;16.20;77.50;;;;;;5053599;28;20029;-58
2022/05/23 04:07:25;;;;;;;1.65;1.20;;;16.20;77.60;;;;;;5053735;28;20024;-58
2022/05/23 04:09:50;;;;;;;2.75;1.67;;;16.20;77.80;;;;;;5053544;28;20043;-59
2022/05/23 04:12:16;;;;;;;3.95;2.13;;;16.20;77.90;;;;;;5053333;28;20459;-58
2022/05/23 04:14:42;;;;;;;4.05;2.28;;;16.20;78.10;;;;;;5053353;28;20025;-58
2022/05/23 04:17:09;;;;;;;4.07;2.47;;;16.20;78.20;;;;;;5053640;28;20055;-58
2022/05/23 04:19:35;;;;;;;3.17;2.20;;;16.20;78.40;;;;;;5053401;28;20025;-58
2022/05/23 04:22:00;;;;;;;3.78;2.25;;;16.20;78.60;;;;;;5052292;28;20025;-58
2022/05/23 04:24:26;;;;;;;3.50;2.20;;;16.20;78.80;;;;;;5052920;28;20110;-58
2022/05/23 04:26:53;;;;;;;5.63;2.58;;;16.20;79.00;;;;;;5051284;28;20029;-58
2022/05/23 04:29:19;;;;;;;5.00;2.55;;;16.20;79.10;;;;;;5053086;28;20029;-58
2022/05/23 04:31:45;;;;;;;4.68;2.67;;;16.20;79.10;;;;;;5053086;28;20439;-58
2022/05/23 04:36:54;;;;;;;2.83;2.30;;;16.20;79.20;;;;;;5053188;28;20051;-58
2022/05/23 04:39:20;;;;;;;3.40;2.40;;;16.20;79.30;;;;;;5051898;28;20552;-58
2022/05/23 04:41:45;;;;;;;5.43;2.38;;;16.20;79.40;;;;;;5053040;28;20029;-58
2022/05/23 04:44:11;;;;;;;4.35;2.58;;;16.30;79.50;;;;;;5052973;28;20029;-58
2022/05/23 04:49:39;;;;;;;3.38;2.45;;;16.30;79.60;;;;;;5052847;28;20469;-58
2022/05/23 04:52:07;;;;;;;3.45;2.13;;;16.30;79.80;;;;;;5052851;28;20532;-58
2022/05/23 04:54:33;;;;;;;3.38;2.10;;;16.40;80.00;;;;;;5052716;28;20481;-58
2022/05/23 04:56:58;;;;;;;3.13;1.92;;;16.40;80.10;;;;;;5035179;28;20078;-58
2022/05/23 04:59:24;;;;;;;2.97;2.03;;;16.40;80.20;;;;;;5052817;28;20033;-58
2022/05/23 05:01:49;;;;;;;3.40;1.98;;;16.40;80.20;;;;;;5052375;28;20145;-58
2022/05/23 05:04:15;;;;;;;3.90;2.00;;;16.50;80.30;;;;;;5045040;28;20029;-58
2022/05/23 05:06:40;;;;;;;3.42;2.05;;;16.50;80.40;;;;;;5040869;28;20044;-58
2022/05/23 05:09:05;;;;;;;4.57;2.17;;;16.50;80.50;;;;;;5034523;28;20116;-58
2022/05/23 05:11:31;;;;;;;4.70;2.38;;;16.50;80.70;;;;;;5047342;28;20025;-59
2022/05/23 05:13:57;;;;;;;3.05;2.00;;;16.60;80.80;;;;;;5052596;28;20036;-58
2022/05/23 05:16:23;;;;;;;4.15;1.73;;;16.60;81.00;;;;;;5052387;28;20017;-59
2022/05/23 05:18:48;;;;;;;3.35;1.75;;;16.70;81.10;;;;;;5050484;28;20020;-58
2022/05/23 05:21:14;;;;;;;3.58;1.80;;;16.70;81.10;;;;;;5051893;28;20033;-58
2022/05/23 05:23:39;;;;;;;4.28;2.40;;;16.80;81.10;;;;;;5051969;28;20029;-58
2022/05/23 05:26:05;;;;;;;3.22;1.80;;;16.80;81.20;;;;;;5050045;28;20496;-58
2022/05/23 05:28:31;;;;;;;3.60;1.42;;;16.90;81.30;;;;;;5052525;28;20389;-58
2022/05/23 05:31:12;;;;;;;3.08;1.90;;;16.90;81.20;;;;;;5052181;28;20029;-58
2022/05/23 05:33:43;;;;;;;3.47;2.58;;;17.00;81.20;;;;;;5052424;28;20049;-58
2022/05/23 05:36:38;;;;;;;7.20;2.33;;;17.00;81.40;;;;;;5052307;28;20021;-58
2022/05/23 05:39:06;;;;;;;7.35;3.20;;;17.10;81.30;;;;;;5051652;28;20033;-58
2022/05/23 05:41:45;;;;;;;4.22;2.20;;;17.10;81.80;;;;;;5052314;28;20024;-58
2022/05/23 05:44:18;;;;;;;5.63;2.10;;;17.20;81.80;;;;;;5052414;28;20025;-58
2022/05/23 05:46:49;;;;;;;4.15;2.17;;;17.30;81.70;;;;;;5052031;28;20104;-58
2022/05/23 05:49:24;;;;;;;4.40;2.13;;;17.30;81.60;;;;;;5050959;28;20029;-58
2022/05/23 05:51:52;;;;;;;4.55;2.65;;;17.40;81.60;;;;;;5046936;28;20041;-60
2022/05/23 05:54:21;;;;;;;6.93;2.72;;;17.40;81.70;;;;;;5031919;28;20484;-59
2022/05/23 05:56:48;;;;;;;6.85;2.30;;;17.50;81.60;;;;;;5047124;28;20021;-60
2022/05/23 05:59:14;;;;;;;5.90;3.03;;;17.60;81.50;;;;;;5031843;28;20230;-60
2022/05/23 06:01:40;;;;;;;5.80;3.00;;;17.60;81.20;;;;;;5031769;28;20499;-60
2022/05/23 06:04:06;;;;;;;4.53;2.33;;;17.60;81.20;;;;;;5032101;28;20026;-60
2022/05/23 06:12:00;;;;;;;6.10;3.20;;;17.80;81.10;;;;;;5050626;28;20087;-60
2022/05/23 06:14:25;;;;;;;3.72;2.20;;;17.90;80.70;;;;;;5051701;28;20029;-60
2022/05/23 06:16:51;;;;;;;5.43;2.35;;;17.90;80.40;;;;;;5046144;28;20029;-60
2022/05/23 06:19:17;;;;;;;6.18;3.15;;;18.00;79.30;;;;;;5051258;28;20013;-60
2022/05/23 06:21:42;;;;;;;7.50;3.25;;;18.10;78.90;;;;;;5050632;28;20098;-60
2022/05/23 06:24:08;;;;;;;3.83;2.45;;;18.10;78.70;;;;;;5044257;28;20030;-60
2022/05/23 06:26:34;;;;;;;5.22;2.45;;;18.10;78.50;;;;;;5047388;28;20016;-60
2022/05/23 06:28:59;;;;;;;6.18;2.38;;;18.20;78.10;;;;;;5051701;28;20029;-60
2022/05/23 06:31:25;;;;;;;5.50;2.90;;;18.20;78.10;;;;;;5051845;28;20421;-60
2022/05/23 06:33:50;;;;;;;4.25;1.80;;;18.30;77.60;;;;;;5050078;28;20047;-60
2022/05/23 06:36:16;;;;;;;3.38;1.80;;;18.40;77.60;;;;;;5053137;28;20110;-60
2022/05/23 06:38:42;;;;;;;4.47;1.98;;;18.50;77.40;;;;;;5054871;28;20074;-60
2022/05/23 06:41:09;;;;;;;4.70;2.28;;;18.60;76.70;;;;;;5045665;28;20063;-61
2022/05/23 06:43:37;;;;;;;6.25;2.83;;;18.60;76.50;;;;;;5054158;28;20032;-60
2022/05/23 06:46:03;;;;;;;5.10;2.05;;;18.70;76.30;;;;;;5055138;28;20094;-60
2022/05/23 06:48:30;;;;;;;7.20;2.67;;;18.70;76.20;;;;;;5055365;28;20021;-60
2022/05/23 06:50:56;;;;;;;4.80;2.08;;;18.80;75.10;;;;;;5054996;28;20035;-60
2022/05/23 06:53:23;;;;;;;5.00;3.00;;;18.90;75.20;;;;;;5050682;28;20033;-60
2022/05/23 06:55:50;;;;;;;6.85;2.25;;;18.90;73.90;;;;;;5053257;28;20028;-60
2022/05/23 06:58:17;;;;;;;5.40;2.13;;;18.90;74.20;;;;;;5053370;28;20372;-60
2022/05/23 07:00:43;;;;;;;6.20;2.58;;;19.00;74.80;;;;;;5049141;28;20460;-60
2022/05/23 07:03:09;;;;;;;5.75;1.98;;;19.00;74.40;;;;;;5053155;28;20021;-60
2022/05/23 07:13:51;;;;;;;4.88;2.25;;;19.30;73.10;;;;;;5053469;28;20077;-60
2022/05/23 07:16:17;;;;;;;3.97;2.00;;;19.30;73.10;;;;;;5038990;28;20104;-59
2022/05/23 07:18:43;;;;;;;4.60;1.63;;;19.40;73.70;;;;;;5042893;28;20536;-60
2022/05/23 07:21:09;;;;;;;4.78;2.75;;;19.50;74.30;;;;;;5053880;28;20048;-60
2022/05/23 07:23:35;;;;;;;6.50;2.03;;;19.60;73.60;;;;;;5052072;28;20114;-60
2022/05/23 07:26:02;;;;;;;5.72;1.98;;;19.70;73.70;;;;;;5050471;28;20017;-60
2022/05/23 07:28:28;;;;;;;5.88;2.85;;;19.80;73.50;;;;;;5054075;28;20029;-60
2022/05/23 07:30:53;;;;;;;4.20;2.58;;;19.70;73.20;;;;;;5037985;28;20051;-60
2022/05/23 07:33:20;;;;;;;3.33;1.92;;;19.70;72.30;;;;;;5034413;28;20025;-59
2022/05/23 07:35:46;;;;;;;4.78;2.60;;;19.70;72.70;;;;;;5040711;28;20056;-60
2022/05/23 07:38:11;;;;;;;6.25;2.60;;;19.80;72.60;;;;;;5053043;28;20048;-59
2022/05/23 07:40:37;;;;;;;7.68;3.35;;;19.80;72.50;;;;;;5052107;28;20407;-59
2022/05/23 07:43:02;;;;;;;6.50;2.90;;;19.90;72.40;;;;;;5053399;28;20043;-60
2022/05/23 07:45:28;;;;;;;9.27;3.72;;;19.90;73.00;;;;;;5053638;28;20064;-60
2022/05/23 07:47:53;;;;;;;8.05;3.90;;;19.90;73.70;;;;;;5053344;28;20035;-60
2022/05/23 07:50:21;;;;;;;6.38;3.10;;;19.90;72.60;;;;;;5053893;28;20495;-60
2022/05/23 08:00:31;;;;;;;6.93;3.42;;;19.90;72.10;;;;;;5053780;28;20041;-60
2022/05/23 08:01:00;;;;;;;6.03;3.67;;;20.00;73.40;;;;;;5053024;28;20036;-60
2022/05/23 08:03:27;;;;;;;7.13;3.85;;;20.00;73.20;;;;;;5053685;28;20049;-60
2022/05/23 08:05:52;;;;;;;6.40;3.35;;;19.90;73.30;;;;;;5053275;28;20028;-60
2022/05/23 08:08:18;;;;;;;6.07;3.33;;;20.00;73.70;;;;;;5053598;28;20033;-60
2022/05/23 08:10:44;;;;;;;5.07;2.80;;;20.10;73.90;;;;;;5053165;28;20021;-60
2022/05/23 08:13:09;;;;;;;5.40;3.47;;;20.20;73.20;;;;;;5053470;28;20025;-60
2022/05/23 08:15:37;;;;;;;7.82;4.38;;;20.40;73.20;;;;;;5053413;28;20028;-60
2022/05/23 08:18:08;;;;;;;7.72;3.97;;;20.40;73.80;;;;;;5053354;28;20075;-60
2022/05/23 08:20:35;;;;;;;5.22;3.10;;;20.40;73.60;;;;;;5051627;28;20082;-60
2022/05/23 08:23:00;;;;;;;9.55;4.80;;;20.50;73.30;;;;;;5053058;28;20067;-60
2022/05/23 08:25:26;;;;;;;6.63;3.42;;;20.60;72.70;;;;;;5053114;28;20056;-60
2022/05/23 08:27:53;;;;;;;9.23;4.65;;;20.60;73.30;;;;;;5052982;28;20029;-60
2022/05/23 08:30:19;;;;;;;7.47;4.40;;;20.70;73.50;;;;;;5053143;28;20051;-60
2022/05/23 08:32:45;;;;;;;9.20;4.70;;;20.70;72.60;;;;;;5051754;28;20043;-60
2022/05/23 08:35:11;;;;;;;8.82;4.47;;;20.70;72.30;;;;;;5052871;28;20021;-60
2022/05/23 08:37:38;;;;;;;8.85;4.25;;;20.70;72.40;;;;;;5052872;28;20024;-60
2022/05/23 08:40:05;;;;;;;6.65;3.90;;;20.60;72.80;;;;;;5053025;28;20034;-60
2022/05/23 08:42:47;;;;;;;7.50;3.97;;;20.60;72.30;;;;;;5052794;28;20021;-60
2022/05/23 08:45:12;;;;;;;8.18;4.70;;;20.70;71.90;;;;;;5051616;28;20029;-60
2022/05/23 08:48:01;;;;;;;6.15;4.05;;;20.70;72.80;;;;;;5052817;28;20052;-60
2022/05/23 08:50:45;;;;;;;4.70;4.15;;;20.70;72.10;;;;;;5048530;28;20492;-60
2022/05/23 08:53:18;;;;;;;6.95;4.03;;;20.70;72.00;;;;;;5052411;28;20048;-60
2022/05/23 08:55:48;;;;;;;4.35;3.35;;;20.60;72.80;;;;;;5052127;28;20397;-60
2022/05/23 08:58:53;;;;;;;6.50;3.78;;;20.70;72.30;;;;;;5052592;28;20025;-60
2022/05/23 09:01:38;;;;;;;6.60;3.70;;;20.70;73.40;;;;;;5047473;28;20043;-60
2022/05/23 09:04:31;;;;;;;4.20;2.83;;;20.80;73.00;;;;;;5045780;28;20350;-60
2022/05/23 09:06:58;;;;;;;5.07;3.40;;;20.90;73.60;;;;;;5050577;28;20082;-60
2022/05/23 09:09:24;;;;;;;5.18;3.55;;;21.00;73.30;;;;;;5041836;28;20079;-60
2022/05/23 09:11:54;;;;;;;4.63;3.13;;;21.10;72.80;;;;;;5051713;28;20056;-60
2022/05/23 09:14:20;;;;;;;7.60;4.10;;;21.10;72.20;;;;;;5052616;28;20021;-60
2022/05/23 09:16:52;;;;;;;4.40;3.47;;;21.20;71.90;;;;;;5052439;28;20104;-60
2022/05/23 09:19:27;;;;;;;7.18;4.10;;;21.20;71.20;;;;;;5052314;28;20108;-60
2022/05/23 09:22:13;;;;;;;4.50;3.33;;;21.20;71.00;;;;;;5052192;28;20032;-60
2022/05/23 09:24:39;;;;;;;6.85;4.60;;;21.20;71.90;;;;;;5052026;28;20078;-60
2022/05/23 09:27:37;;;;;;;7.72;4.22;;;21.20;71.50;;;;;;5051082;28;20021;-60
2022/05/23 09:30:08;;;;;;;6.70;3.55;;;21.30;70.60;;;;;;5052459;28;20025;-59
2022/05/23 09:32:39;;;;;;;4.35;3.47;;;21.30;70.00;;;;;;5052457;28;20017;-60
2022/05/23 09:35:25;;;;;;;6.55;3.50;;;21.30;70.60;;;;;;5052195;28;20029;-60
2022/05/23 09:38:14;;;;;;;4.65;3.10;;;21.30;69.30;;;;;;5050808;28;20397;-58
2022/05/23 09:40:39;;;;;;;7.85;3.80;;;21.30;69.60;;;;;;5052422;28;20036;-58
2022/05/23 09:49:11;;;;;;;8.68;4.03;;;21.30;70.20;;;;;;5052151;28;20385;-58
2022/05/23 09:52:13;;;;;;;5.75;3.80;;;21.40;69.30;;;;;;5051853;28;20041;-59
2022/05/23 09:54:52;;;;;;;4.60;2.47;;;21.40;69.90;;;;;;5051930;28;20075;-58
2022/05/23 09:57:40;;;;;;;5.03;2.47;;;21.60;70.30;;;;;;5051572;28;20404;-58
2022/05/23 10:00:26;;;;;;;4.50;3.25;;;21.80;70.30;;;;;;5043011;28;20120;-59
2022/05/23 10:02:57;;;;;;;5.38;2.50;;;21.90;69.50;;;;;;5032078;28;20028;-59
2022/05/23 10:05:46;;;;;;;5.05;2.72;;;21.90;69.60;;;;;;5037165;28;20025;-58
2022/05/23 10:08:30;;;;;;;4.30;1.92;;;22.10;68.90;;;;;;5052106;28;20033;-59
2022/05/23 10:11:02;;;;;;;4.95;1.80;;;22.10;69.00;;;;;;5052810;28;20029;-59
2022/05/23 10:13:40;;;;;;;5.20;2.22;;;22.30;68.70;;;;;;5055658;28;20146;-59
2022/05/23 10:16:08;;;;;;;5.80;2.85;;;22.40;67.70;;;;;;5054414;28;20061;-58
2022/05/23 10:18:37;;;;;;;4.80;2.63;;;22.50;66.80;;;;;;5055451;28;20477;-59
2022/05/23 10:21:37;;;;;;;3.47;1.70;;;22.40;66.20;;;;;;5055141;28;20087;-58
2022/05/23 10:24:16;;;;;;;4.22;1.88;;;22.40;66.80;;;;;;5053541;28;20131;-59
2022/05/23 10:26:45;;;;;;;;;;;22.60;67.40;;;;;;5052399;28;20021;-58
2022/05/23 10:29:31;;;;;;;;;;;22.70;67.40;;;;;;5055938;28;20428;-58
2022/05/23 10:32:09;;;;;;;2.97;1.20;;;22.80;67.50;;;;;;5054942;28;19995;-59
2022/05/23 10:34:50;;;;;;;3.35;1.42;;;23.00;67.30;;;;;;5055042;28;20032;-59
2022/05/23 10:37:21;;;;;;;7.32;2.40;;;23.30;67.10;;;;;;5055246;28;20384;-59
2022/05/23 10:43:10;;;;;;;2.78;1.50;;;23.30;65.70;;;;;;5042040;28;20094;-59
2022/05/23 10:46:00;;;;;;;4.10;1.48;;;23.40;65.60;;;;;;5053946;28;20078;-59
2022/05/23 10:48:54;;;;;;;4.05;1.85;;;23.60;65.20;;;;;;5055192;28;20025;-59
2022/05/23 10:51:35;;;;;;;6.03;1.58;;;23.70;64.20;;;;;;5054979;28;20073;-59
2022/05/23 10:54:30;;;;;;;6.85;2.30;;;23.80;63.40;;;;;;5049267;28;20021;-59
2022/05/23 10:57:23;;;;;;;7.68;2.83;;;23.80;62.90;;;;;;5053884;28;20025;-59
2022/05/23 11:00:14;;;;;;;2.85;1.50;;;23.80;64.10;;;;;;5054825;28;20024;-59
2022/05/23 11:03:16;;;;;;;4.60;2.42;;;23.90;64.70;;;;;;5048259;28;20079;-60
2022/05/23 11:05:49;;;;;;;2.78;1.75;;;24.30;63.70;;;;;;5034692;28;20033;-59
2022/05/23 11:08:32;;;;;;;3.40;1.60;;;24.30;63.90;;;;;;5034674;28;20040;-59
2022/05/23 11:11:09;;;;;;;3.40;1.60;;;24.60;63.80;;;;;;5044860;28;20017;-58
2022/05/23 11:13:45;;;;;;;2.63;1.90;;;24.70;63.90;;;;;;5054539;28;20108;-59
2022/05/23 11:16:20;;;;;;;3.05;2.00;;;24.90;63.20;;;;;;5052431;28;20380;-59
2022/05/23 11:19:06;;;;;;;6.35;3.25;;;24.90;63.80;;;;;;5054009;28;20056;-59
2022/05/23 11:21:40;;;;;;;5.68;3.30;;;24.80;62.20;;;;;;5054304;28;20036;-59
2022/05/23 11:24:12;;;;;;;4.82;2.90;;;24.60;63.60;;;;;;5052920;28;20047;-59
2022/05/23 11:26:47;;;;;;;6.18;3.88;;;24.50;63.00;;;;;;5052715;28;20056;-59
2022/05/23 11:35:06;;;;;;;2.83;1.90;;;24.70;62.30;;;;;;5047415;28;20168;-59
2022/05/23 11:37:45;;;;;;;6.00;2.40;;;24.90;62.60;;;;;;5048180;28;20429;-59
2022/05/23 11:40:51;;;;;;;4.63;2.40;;;25.10;59.30;;;;;;5049745;28;20024;-59
2022/05/23 11:43:21;;;;;;;3.85;2.10;;;25.10;58.70;;;;;;5036277;28;20534;-59
2022/05/23 11:46:00;;;;;;;5.25;2.10;;;25.20;58.40;;;;;;5046942;28;20025;-59
2022/05/23 11:48:35;;;;;;;5.55;2.40;;;25.30;58.00;;;;;;5049801;28;20021;-59
2022/05/23 11:51:12;;;;;;;6.32;3.10;;;25.50;58.10;;;;;;5052098;28;20159;-59
2022/05/23 11:53:58;;;;;;;5.78;3.38;;;25.80;57.40;;;;;;5046793;28;20025;-59
2022/05/23 11:57:00;;;;;;;4.55;2.67;;;25.80;58.40;;;;;;5067104;28;20051;-59
2022/05/23 11:59:25;;;;;;;5.95;2.78;;;25.90;58.00;;;;;;5049591;28;20025;-59
2022/05/23 12:02:21;;;;;;;5.38;3.05;;;26.00;57.10;;;;;;5051933;28;20100;-59
2022/05/23 12:04:51;;;;;;;6.22;2.97;;;26.00;56.60;;;;;;5040343;28;20041;-59
2022/05/23 12:07:34;;;;;;;4.28;1.85;;;25.90;58.00;;;;;;5052019;28;20013;-59
2022/05/23 12:10:16;;;;;;;4.68;2.10;;;26.10;58.10;;;;;;5046403;28;20072;-59
2022/05/23 12:12:52;;;;;;;4.80;2.33;;;26.30;57.70;;;;;;5050274;28;20017;-59
2022/05/23 12:15:42;;;;;;;3.70;2.75;;;26.20;56.80;;;;;;5049511;28;20021;-59
2022/05/23 12:18:13;;;;;;;7.30;2.35;;;26.00;56.50;;;;;;5050879;28;20024;-59
2022/05/23 12:20:45;;;;;;;4.32;2.38;;;25.80;57.00;;;;;;5048929;28;20013;-59
2022/05/23 12:23:32;;;;;;;4.72;2.28;;;25.70;56.80;;;;;;5052443;28;20483;-59
2022/05/23 12:26:09;;;;;;;4.43;2.53;;;25.60;57.00;;;;;;5045777;28;20053;-59
2022/05/23 12:29:21;;;;;;;7.40;3.50;;;25.60;57.40;;;;;;5050507;28;20029;-62
2022/05/23 12:32:10;;;;;;;3.72;1.92;;;25.30;58.50;;;;;;5049970;28;20423;-59
2022/05/23 12:34:42;;;;;;;4.45;2.70;;;25.20;59.90;;;;;;5050447;28;20465;-59
2022/05/23 12:37:15;;;;;;;9.00;3.08;;;25.30;59.20;;;;;;5049633;28;20037;-59
2022/05/23 12:39:48;;;;;;;7.88;3.10;;;25.20;58.00;;;;;;5051351;28;20021;-59
2022/05/23 12:42:37;;;;;;;6.25;2.63;;;24.90;57.90;;;;;;5050881;28;20051;-59
2022/05/23 12:45:16;;;;;;;5.97;2.35;;;24.70;58.50;;;;;;5052752;28;20078;-59
2022/05/23 12:48:09;;;;;;;6.13;2.00;;;24.70;59.40;;;;;;5052649;28;20021;-59
2022/05/23 12:51:03;;;;;;;2.97;1.65;;;24.70;59.60;;;;;;5052763;28;20029;-59
2022/05/23 12:54:04;;;;;;;7.00;2.35;;;24.60;60.00;;;;;;5047044;28;20060;-59
2022/05/23 12:56:37;;;;;;;4.78;1.77;;;24.60;58.50;;;;;;5052693;28;20025;-59
2022/05/23 12:59:24;;;;;;;2.75;1.90;;;24.50;58.80;;;;;;5052859;28;20056;-59
2022/05/23 13:01:56;;;;;;;4.25;1.65;;;24.50;58.70;;;;;;5052599;28;20029;-60
2022/05/23 13:04:53;;;;;;;6.97;2.70;;;24.40;59.20;;;;;;5052683;28;20476;-59
2022/05/23 13:07:37;;;;;;;4.18;2.35;;;24.30;58.60;;;;;;5043159;28;20059;-59
2022/05/23 13:10:08;;;;;;;5.68;2.50;;;24.20;59.10;;;;;;5051704;28;20049;-59
2022/05/23 13:12:39;;;;;;;4.93;2.08;;;24.10;59.50;;;;;;5049178;28;20358;-59
2022/05/23 13:15:05;;;;;;;4.65;1.83;;;24.10;59.70;;;;;;5050868;28;20013;-59
2022/05/23 13:17:38;;;;;;;3.90;2.45;;;24.00;60.40;;;;;;5048185;28;20484;-59
2022/05/23 13:23:23;;;;;;;3.50;2.03;;;24.00;61.00;;;;;;5049871;28;20068;-59
2022/05/23 13:25:49;;;;;;;4.65;2.42;;;24.00;61.80;;;;;;5043464;28;20655;-59
2022/05/23 13:28:17;;;;;;;3.55;2.08;;;24.00;61.20;;;;;;5039958;28;20108;-59
2022/05/23 13:30:48;;;;;;;6.72;1.98;;;24.00;61.80;;;;;;5038740;28;20033;-59
2022/05/23 13:33:30;;;;;;;6.25;1.75;;;24.00;62.00;;;;;;5041608;28;20580;-59
2022/05/23 13:36:02;;;;;;;3.75;1.90;;;24.00;62.30;;;;;;5047085;28;20553;-59
2022/05/23 13:38:31;;;;;;;6.00;2.00;;;24.10;62.10;;;;;;5038442;28;20021;-59
2022/05/23 13:40:59;;;;;;;5.03;1.70;;;24.00;62.10;;;;;;5031954;28;20068;-60
2022/05/23 13:43:31;;;;;;;3.78;1.75;;;24.00;63.00;;;;;;5045345;28;20429;-59
2022/05/23 13:46:20;;;;;;;4.80;1.60;;;24.00;63.40;;;;;;5051058;28;20041;-59
2022/05/23 13:49:02;;;;;;;5.13;1.95;;;24.10;63.70;;;;;;5054696;28;20064;-59
2022/05/23 13:51:39;;;;;;;4.65;1.50;;;24.10;64.40;;;;;;5050173;28;20100;-59
2022/05/23 13:54:12;;;;;;;2.45;1.20;;;24.30;64.50;;;;;;5049742;28;20024;-59
2022/05/23 13:56:42;;;;;;;2.58;1.27;;;24.50;64.60;;;;;;5053027;28;20021;-59
2022/05/23 13:59:18;;;;;;;5.20;1.83;;;24.50;64.30;;;;;;5054446;28;20017;-59
2022/05/23 14:01:57;;;;;;;5.28;2.00;;;24.60;64.10;;;;;;5051442;28;20040;-59
2022/05/23 14:04:27;;;;;;;4.18;2.60;;;24.50;64.70;;;;;;5051923;28;20079;-59
2022/05/23 14:06:58;;;;;;;4.05;1.80;;;24.40;64.40;;;;;;5053010;28;20477;-59
2022/05/23 14:09:25;;;;;;;5.28;2.33;;;24.30;64.80;;;;;;5052092;28;20025;-58
2022/05/23 14:11:56;;;;;;;6.10;2.22;;;24.30;65.80;;;;;;5054821;28;20024;-59
2022/05/23 14:14:42;;;;;;;5.13;2.15;;;24.30;65.50;;;;;;5055998;28;20029;-58